Time;durP1;ratioP1;P1;durP2;ratioP2;P2;SDS_P1;SDS_P2;PMS_P1;PMS_P2;Temp;Humidity;BMP_temperature;BMP_pressure;BME280_temperature;BME280_humidity;BME280_pressure;Samples;Min_cycle;Max_cycle;Signal;HPM_P1;HPM_P2
2021/01/21 00:00:17;;;;;;;55.42;30.80;;;;;;;0.68;68.22;95340.38;4124203;28;20046;-70
2021/01/21 00:02:19;;;;;;;55.00;30.83;;;;;;;0.65;68.50;95341.38;4129794;28;20476;-71
2021/01/21 00:04:20;;;;;;;58.90;31.17;;;;;;;0.61;68.60;95330.38;4129511;28;20596;-71
2021/01/21 00:06:21;;;;;;;65.00;33.40;;;;;;;0.66;68.48;95337.84;4128307;28;20061;-69
2021/01/21 00:08:22;;;;;;;58.28;32.28;;;;;;;0.34;69.92;95366.19;4120595;28;20488;-71
2021/01/21 00:10:24;;;;;;;54.05;33.03;;;;;;;0.36;70.12;95335.19;4129142;28;20042;-70
2021/01/21 00:12:25;;;;;;;55.65;32.03;;;;;;;0.46;69.68;95330.38;4120722;28;20063;-70
2021/01/21 00:14:27;;;;;;;57.25;32.58;;;;;;;0.33;69.83;95366.28;4123222;28;20478;-71
2021/01/21 00:16:28;;;;;;;60.00;34.63;;;;;;;-0.04;71.61;95347.59;4118182;28;20069;-71
2021/01/21 00:18:29;;;;;;;57.80;32.90;;;;;;;0.10;71.12;95349.44;4130224;28;20058;-70
2021/01/21 00:20:30;;;;;;;56.38;32.03;;;;;;;0.24;70.46;95352.13;4130884;28;20469;-70
2021/01/21 00:22:32;;;;;;;52.63;30.90;;;;;;;0.29;70.33;95337.25;4117928;28;20076;-69
2021/01/21 00:24:33;;;;;;;54.08;30.77;;;;;;;0.39;69.73;95361.63;4115126;28;20416;-69
2021/01/21 00:26:35;;;;;;;54.22;32.00;;;;;;;0.46;69.47;95345.84;4126341;28;20504;-70
2021/01/21 00:28:36;;;;;;;57.83;32.15;;;;;;;0.49;69.17;95337.94;4121207;28;20053;-68
2021/01/21 00:30:37;;;;;;;56.10;31.70;;;;;;;0.51;69.54;95343.84;4120251;28;20408;-70
2021/01/21 00:32:38;;;;;;;56.78;30.92;;;;;;;0.42;69.43;95354.66;4133227;28;20105;-69
2021/01/21 00:34:40;;;;;;;53.08;31.00;;;;;;;0.26;69.91;95340.00;4124381;28;20046;-70
2021/01/21 00:36:41;;;;;;;53.58;32.03;;;;;;;0.30;70.04;95333.78;4130628;28;20050;-70
2021/01/21 00:38:42;;;;;;;53.50;30.80;;;;;;;0.18;70.14;95344.72;4131054;28;20104;-69
2021/01/21 00:40:44;;;;;;;55.30;30.70;;;;;;;0.10;70.33;95342.53;4126606;28;20496;-70
2021/01/21 00:42:45;;;;;;;55.95;32.78;;;;;;;0.19;70.28;95344.66;4116344;28;20050;-69
2021/01/21 00:44:46;;;;;;;61.95;31.23;;;;;;;0.31;69.86;95340.59;4130725;28;20046;-70
2021/01/21 00:46:47;;;;;;;55.30;31.75;;;;;;;0.38;69.67;95326.44;4127254;28;20049;-71
2021/01/21 00:48:48;;;;;;;52.72;31.38;;;;;;;0.45;69.77;95331.28;4118948;28;20057;-70
2021/01/21 00:50:50;;;;;;;53.55;31.33;;;;;;;0.39;69.49;95335.88;4126354;28;20420;-70
2021/01/21 00:52:51;;;;;;;59.45;31.88;;;;;;;0.42;69.21;95334.03;4117365;28;20157;-69
2021/01/21 00:54:52;;;;;;;54.65;29.75;;;;;;;0.48;69.02;95323.41;4124762;28;20070;-70
2021/01/21 00:56:53;;;;;;;50.97;30.00;;;;;;;0.47;68.87;95335.44;4126140;28;20054;-81
2021/01/21 00:58:54;;;;;;;51.58;30.67;;;;;;;0.53;68.99;95334.28;4132962;28;20058;-81
2021/01/21 01:00:56;;;;;;;53.38;29.58;;;;;;;0.54;68.58;95317.91;4122505;28;20051;-81
2021/01/21 01:02:57;;;;;;;49.80;27.92;;;;;;;0.56;68.70;95321.22;4128159;28;20058;-79
2021/01/21 01:04:59;;;;;;;47.22;28.80;;;;;;;0.55;69.05;95329.88;4127377;28;20100;-82
2021/01/21 01:07:00;;;;;;;51.30;27.98;;;;;;;0.33;69.11;95314.75;4131623;28;20105;-81
2021/01/21 01:09:02;;;;;;;52.10;30.02;;;;;;;0.27;69.75;95310.75;4133009;28;20527;-80
2021/01/21 01:11:03;;;;;;;48.40;28.83;;;;;;;0.25;69.49;95311.75;4139865;28;20059;-81
2021/01/21 01:13:04;;;;;;;52.30;29.48;;;;;;;0.28;69.41;95306.41;4115538;28;20130;-80
2021/01/21 01:15:07;;;;;;;51.50;29.50;;;;;;;0.38;69.14;95305.84;4116531;28;20053;-82
2021/01/21 01:17:09;;;;;;;52.40;29.30;;;;;;;0.43;69.04;95300.47;4127617;28;20499;-80
2021/01/21 01:19:11;;;;;;;50.97;30.33;;;;;;;0.46;69.04;95304.59;4118493;28;20121;-81
2021/01/21 01:21:12;;;;;;;50.72;29.30;;;;;;;0.48;68.76;95302.78;4130477;28;20047;-80
2021/01/21 01:23:13;;;;;;;50.38;29.40;;;;;;;0.52;68.44;95304.28;4132928;28;20047;-80
2021/01/21 01:25:14;;;;;;;50.03;28.75;;;;;;;0.52;68.30;95304.28;4132353;28;20053;-79
2021/01/21 01:27:16;;;;;;;50.03;30.00;;;;;;;0.52;68.42;95293.97;4133084;28;20093;-80
2021/01/21 01:29:19;;;;;;;54.30;30.50;;;;;;;0.44;68.88;95302.09;4132828;28;20419;-80
2021/01/21 01:31:20;;;;;;;48.58;29.38;;;;;;;0.45;68.34;95302.94;4118337;28;20054;-81
2021/01/21 01:33:22;;;;;;;48.03;28.65;;;;;;;0.46;68.49;95292.53;4132578;28;20129;-80
2021/01/21 01:35:23;;;;;;;52.03;30.75;;;;;;;0.46;68.64;95294.28;4132206;28;20455;-79
2021/01/21 01:37:24;;;;;;;50.05;29.45;;;;;;;0.36;68.83;95294.78;4132437;28;20504;-80
2021/01/21 01:39:25;;;;;;;56.83;31.35;;;;;;;0.03;69.50;95302.56;4127517;28;20046;-80
2021/01/21 01:41:27;;;;;;;53.47;30.70;;;;;;;0.02;70.11;95290.59;4122922;28;20526;-79
2021/01/21 01:43:29;;;;;;;40.38;26.33;;;;;;;0.05;69.61;95289.63;4131379;28;20057;-79
2021/01/21 01:45:30;;;;;;;45.03;28.60;;;;;;;0.15;69.97;95307.06;4131953;28;20074;-80
2021/01/21 01:47:33;;;;;;;43.95;25.65;;;;;;;-0.03;70.15;95306.28;4124248;28;20110;-79
2021/01/21 01:49:35;;;;;;;42.72;25.33;;;;;;;-0.08;70.12;95304.88;4122536;28;20484;-80
2021/01/21 01:51:38;;;;;;;39.42;23.63;;;;;;;-0.08;69.96;95310.84;4131877;28;20042;-80
2021/01/21 01:53:39;;;;;;;39.03;22.73;;;;;;;-0.04;70.19;95314.09;4131687;28;20058;-81
2021/01/21 01:55:41;;;;;;;42.20;25.60;;;;;;;-0.01;70.03;95314.75;4118638;28;20142;-80
2021/01/21 01:57:47;;;;;;;39.55;24.30;;;;;;;0.01;70.07;95298.41;4128138;28;20050;-79
2021/01/21 01:59:50;;;;;;;41.53;23.70;;;;;;;0.10;69.73;95303.06;4119508;28;20448;-80
2021/01/21 02:01:52;;;;;;;41.78;23.05;;;;;;;0.05;69.75;95289.63;4131462;28;20050;-80
2021/01/21 02:03:53;;;;;;;40.65;23.58;;;;;;;0.03;69.75;95288.84;4133195;28;20050;-81
2021/01/21 02:05:55;;;;;;;51.45;29.15;;;;;;;0.03;69.86;95300.00;4143212;28;20100;-80
2021/01/21 02:07:56;;;;;;;38.42;21.70;;;;;;;-0.51;71.40;95294.19;4132358;28;20053;-80
2021/01/21 02:09:59;;;;;;;39.40;25.00;;;;;;;-0.42;71.85;95284.25;4141023;28;20054;-80
2021/01/21 02:12:25;;;;;;;52.42;28.85;;;;;;;-0.32;71.65;95283.78;4135673;28;20050;-82
2021/01/21 02:14:59;;;;;;;41.47;25.30;;;;;;;-0.16;71.09;95287.22;4130920;28;20053;-80
2021/01/21 02:17:08;;;;;;;40.42;23.73;;;;;;;-0.16;70.88;95279.50;4131419;28;20050;-80
2021/01/21 02:19:44;;;;;;;40.60;24.95;;;;;;;-0.08;70.38;95274.78;4125502;28;20046;-80
2021/01/21 02:22:07;;;;;;;45.65;24.95;;;;;;;0.03;70.15;95275.97;4119516;28;20050;-80
2021/01/21 02:24:32;;;;;;;44.05;24.73;;;;;;;0.14;69.70;95282.22;4131783;28;20046;-80
2021/01/21 02:26:54;;;;;;;40.55;24.52;;;;;;;0.19;69.54;95287.13;4132164;28;20503;-80
2021/01/21 02:29:09;;;;;;;42.08;25.63;;;;;;;0.19;69.50;95276.81;4123734;28;20065;-80
2021/01/21 02:32:11;;;;;;;40.30;23.35;;;;;;;0.25;69.20;95276.47;4124828;28;20074;-81
2021/01/21 02:34:17;;;;;;;36.78;21.55;;;;;;;0.27;68.99;95277.22;4093041;29;20055;-69
2021/01/21 02:36:20;;;;;;;34.17;21.58;;;;;;;0.17;69.47;95276.06;4062103;29;20115;-68
2021/01/21 02:38:23;;;;;;;38.03;24.20;;;;;;;0.03;69.77;95279.38;4079619;28;20059;-70
2021/01/21 02:40:25;;;;;;;41.65;23.65;;;;;;;-0.03;70.13;95283.09;4125607;28;20291;-70
2021/01/21 02:42:27;;;;;;;42.03;24.45;;;;;;;-0.04;70.12;95288.34;4127038;28;20098;-72
2021/01/21 02:44:29;;;;;;;36.85;23.15;;;;;;;0.01;70.13;95288.94;4111244;28;20114;-71
2021/01/21 02:48:51;;;;;;;41.17;23.52;;;;;;;0.15;69.81;95275.31;4127069;28;20050;-69
2021/01/21 02:50:59;;;;;;;41.92;24.13;;;;;;;0.15;69.77;95281.31;4129341;28;20136;-69
2021/01/21 02:53:01;;;;;;;37.42;22.38;;;;;;;0.19;69.51;95284.53;4111052;28;20082;-69
2021/01/21 02:55:12;;;;;;;40.90;23.60;;;;;;;0.22;69.49;95278.41;4118258;28;20054;-70
2021/01/21 02:57:26;;;;;;;38.38;23.73;;;;;;;0.26;69.49;95275.59;4112187;28;20476;-68
2021/01/21 02:59:27;;;;;;;38.88;24.25;;;;;;;0.29;69.12;95277.16;4124631;28;20050;-69
2021/01/21 03:01:30;;;;;;;37.55;23.55;;;;;;;0.31;69.29;95271.00;4125567;28;20060;-70
2021/01/21 03:03:33;;;;;;;40.65;23.42;;;;;;;0.36;69.21;95275.91;4129481;28;20054;-70
2021/01/21 03:05:34;;;;;;;37.13;22.63;;;;;;;0.30;69.38;95277.09;4122318;28;20292;-70
2021/01/21 03:07:36;;;;;;;37.42;22.95;;;;;;;0.30;69.15;95274.50;4124886;28;20050;-71
2021/01/21 03:09:42;;;;;;;42.65;24.08;;;;;;;0.29;69.04;95274.59;4114200;28;20054;-68
2021/01/21 03:11:44;;;;;;;40.92;24.17;;;;;;;0.33;68.65;95273.50;4128045;28;20043;-69
2021/01/21 03:13:45;;;;;;;41.33;23.02;;;;;;;0.31;69.03;95276.16;4132128;28;20049;-71
2021/01/21 03:15:46;;;;;;;44.60;25.05;;;;;;;0.23;69.28;95275.72;4128242;28;20538;-70
2021/01/21 03:17:48;;;;;;;39.97;23.27;;;;;;;0.07;69.49;95278.31;4131753;28;20129;-70
2021/01/21 03:19:50;;;;;;;37.65;23.48;;;;;;;0.01;69.83;95275.22;4130962;28;20064;-70
2021/01/21 03:21:51;;;;;;;45.13;27.23;;;;;;;0.05;70.09;95284.47;4131007;28;20050;-69
2021/01/21 03:23:52;;;;;;;40.42;24.38;;;;;;;0.08;69.75;95282.53;4128079;28;20150;-69
2021/01/21 03:25:54;;;;;;;42.90;24.52;;;;;;;0.10;69.59;95287.63;4120075;28;20055;-70
2021/01/21 03:27:55;;;;;;;44.97;25.88;;;;;;;0.08;69.68;95284.28;4124147;28;20557;-71
2021/01/21 03:29:56;;;;;;;45.78;26.00;;;;;;;-0.18;70.62;95293.38;4127614;28;20058;-69
2021/01/21 03:31:58;;;;;;;48.95;26.85;;;;;;;-0.38;71.68;95295.25;4115449;28;20058;-70
2021/01/21 03:34:01;;;;;;;47.17;27.42;;;;;;;-0.42;71.60;95299.69;4130940;28;20454;-69
2021/01/21 03:36:02;;;;;;;44.83;26.52;;;;;;;-0.31;71.48;95300.91;4125156;28;20051;-69
2021/01/21 03:38:04;;;;;;;46.17;27.17;;;;;;;-0.20;71.26;95296.03;4106678;28;20047;-70
2021/01/21 03:40:05;;;;;;;52.58;28.95;;;;;;;-0.23;71.10;95301.34;4133744;28;20054;-80
2021/01/21 03:42:07;;;;;;;48.97;29.60;;;;;;;-0.42;71.71;95294.56;4134414;28;20074;-79
2021/01/21 03:44:08;;;;;;;58.03;31.95;;;;;;;-0.36;72.20;95298.56;4146460;28;20411;-79
2021/01/21 03:46:11;;;;;;;49.85;28.48;;;;;;;-0.24;71.65;95284.22;4122400;28;20121;-81
2021/01/21 03:48:12;;;;;;;39.50;25.10;;;;;;;-0.15;70.77;95288.91;4129712;28;20061;-79
2021/01/21 03:50:13;;;;;;;43.58;27.63;;;;;;;-0.09;70.71;95290.31;4133875;28;20053;-80
2021/01/21 03:52:14;;;;;;;46.60;27.67;;;;;;;-0.07;70.27;95289.31;4133432;28;20145;-79
2021/01/21 03:54:16;;;;;;;49.15;28.38;;;;;;;-0.01;70.37;95283.03;4133400;28;20495;-80
2021/01/21 03:56:17;;;;;;;47.30;27.25;;;;;;;0.03;70.20;95287.09;4133575;28;20149;-83
2021/01/21 03:58:18;;;;;;;44.17;26.02;;;;;;;0.04;70.20;95288.75;4133207;28;20569;-81
2021/01/21 04:00:20;;;;;;;47.45;27.30;;;;;;;0.02;70.52;95285.44;4123156;28;20046;-80
2021/01/21 04:02:21;;;;;;;44.40;26.40;;;;;;;0.01;70.08;95286.34;4132924;28;20051;-81
2021/01/21 04:04:22;;;;;;;50.20;27.55;;;;;;;-0.06;70.33;95293.56;4131527;28;20479;-80
2021/01/21 04:06:23;;;;;;;46.35;27.20;;;;;;;-0.02;70.52;95291.69;4133099;28;20400;-81
2021/01/21 04:08:25;;;;;;;45.63;26.52;;;;;;;0.01;70.40;95286.34;4134344;28;20050;-81
2021/01/21 04:10:26;;;;;;;45.70;27.42;;;;;;;0.01;70.13;95285.53;4133749;28;20054;-81
2021/01/21 04:12:27;;;;;;;44.75;27.60;;;;;;;-0.02;70.74;95300.22;4116719;28;20109;-80
2021/01/21 04:14:28;;;;;;;54.20;31.58;;;;;;;-0.05;70.97;95289.25;4131508;28;20093;-71
2021/01/21 04:16:29;;;;;;;58.47;33.28;;;;;;;-0.05;70.76;95304.69;4112925;28;20071;-70
2021/01/21 04:18:31;;;;;;;65.00;33.70;;;;;;;-0.03;70.74;95308.84;4120156;28;20070;-70
2021/01/21 04:20:32;;;;;;;58.38;32.88;;;;;;;-0.01;70.66;95307.03;4112846;28;20086;-71
2021/01/21 04:22:34;;;;;;;56.95;34.20;;;;;;;0.05;70.61;95297.34;4114782;28;20047;-70
2021/01/21 04:24:35;;;;;;;61.40;34.25;;;;;;;0.06;70.44;95301.56;4113777;28;20150;-70
2021/01/21 04:26:36;;;;;;;59.70;34.80;;;;;;;0.13;70.44;95306.31;4126939;28;20050;-70
2021/01/21 04:28:38;;;;;;;58.05;33.25;;;;;;;0.16;70.03;95303.56;4128815;28;20058;-70
2021/01/21 04:30:39;;;;;;;58.38;34.88;;;;;;;0.18;69.85;95306.06;4122594;28;20054;-70
2021/01/21 04:32:40;;;;;;;58.05;34.95;;;;;;;0.16;69.69;95308.72;4107524;28;20049;-70
2021/01/21 04:34:41;;;;;;;64.70;34.63;;;;;;;0.16;69.75;95308.72;4113264;28;20047;-70
2021/01/21 04:36:43;;;;;;;56.25;33.78;;;;;;;0.14;70.08;95307.97;4129686;28;20710;-68
2021/01/21 04:38:44;;;;;;;57.33;33.67;;;;;;;0.15;69.81;95313.94;4130450;28;20043;-69
2021/01/21 04:40:45;;;;;;;53.25;32.85;;;;;;;0.14;69.95;95305.41;4125300;28;20078;-70
2021/01/21 04:42:47;;;;;;;59.35;31.33;;;;;;;0.17;70.04;95314.72;4129000;28;20077;-69
2021/01/21 04:44:48;;;;;;;55.22;30.67;;;;;;;0.17;69.61;95317.28;4131085;28;20124;-70
2021/01/21 04:46:49;;;;;;;52.35;30.42;;;;;;;0.19;69.45;95313.75;4126918;28;20061;-68
2021/01/21 04:48:51;;;;;;;54.50;30.67;;;;;;;0.11;70.01;95308.16;4128581;28;20070;-69
2021/01/21 04:50:53;;;;;;;54.70;30.67;;;;;;;0.09;69.47;95312.56;4129885;28;20050;-70
2021/01/21 04:52:56;;;;;;;53.92;30.17;;;;;;;0.08;69.68;95320.34;4108744;28;20137;-70
2021/01/21 04:55:10;;;;;;;47.03;28.45;;;;;;;0.09;69.63;95322.84;4128633;28;20054;-69
2021/01/21 04:57:12;;;;;;;;;;;;;;;0.03;69.14;95319.78;4123930;28;20073;-70
2021/01/21 04:59:14;;;;;;;50.03;27.05;;;;;;;0.04;70.22;95317.09;4124294;28;20294;-68
2021/01/21 05:01:16;;;;;;;47.25;25.88;;;;;;;0.01;69.55;95311.28;4127086;28;20133;-70
2021/01/21 05:03:18;;;;;;;47.85;27.02;;;;;;;0.07;69.86;95316.13;4128853;28;20442;-71
2021/01/21 05:05:19;;;;;;;38.70;25.73;;;;;;;0.06;69.65;95310.13;4124478;28;20062;-70
2021/01/21 05:07:21;;;;;;;44.17;26.77;;;;;;;0.05;69.51;95310.22;4124397;28;20050;-69
2021/01/21 05:09:22;;;;;;;45.40;26.80;;;;;;;0.07;69.67;95300.66;4126444;28;20137;-80
2021/01/21 05:11:24;;;;;;;45.47;27.50;;;;;;;0.06;69.60;95310.13;4123196;28;20511;-82
2021/01/21 05:13:25;;;;;;;42.70;25.33;;;;;;;0.09;69.47;95301.41;4128197;28;20074;-83
2021/01/21 05:15:26;;;;;;;42.80;26.55;;;;;;;0.05;69.84;95305.91;4133069;28;20053;-81
2021/01/21 05:17:28;;;;;;;46.88;27.92;;;;;;;0.01;70.08;95311.28;4132603;28;20567;-80
2021/01/21 05:19:35;;;;;;;50.33;30.15;;;;;;;-0.16;70.77;95305.25;4133267;28;20046;-81
2021/01/21 05:21:39;;;;;;;45.88;29.58;;;;;;;-0.19;70.65;95297.72;4134565;28;20054;-79
2021/01/21 05:23:42;;;;;;;51.60;28.33;;;;;;;-0.16;71.08;95312.16;4137703;28;20043;-82
2021/01/21 05:25:45;;;;;;;45.30;27.08;;;;;;;-0.14;70.64;95306.00;4131270;28;20050;-81
2021/01/21 05:27:46;;;;;;;45.47;26.63;;;;;;;-0.10;70.63;95314.44;4131244;28;20050;-82
2021/01/21 05:29:49;;;;;;;45.40;26.90;;;;;;;-0.03;70.25;95300.31;4127120;28;20051;-81
2021/01/21 05:31:50;;;;;;;42.72;26.00;;;;;;;-0.01;70.18;95303.63;4132346;28;20050;-81
2021/01/21 05:33:52;;;;;;;46.67;27.48;;;;;;;0.02;70.03;95305.22;4131941;28;20084;-82
2021/01/21 05:35:53;;;;;;;41.63;26.40;;;;;;;0.06;70.02;95293.84;4133058;28;20064;-81
2021/01/21 05:37:57;;;;;;;47.38;28.05;;;;;;;0.06;70.18;95309.28;4132457;28;20057;-84
2021/01/21 05:39:58;;;;;;;47.80;26.65;;;;;;;0.07;70.02;95313.56;4132337;28;20129;-82
2021/01/21 05:42:00;;;;;;;44.85;26.00;;;;;;;0.06;70.12;95293.84;4128212;28;20138;-82
2021/01/21 05:44:03;;;;;;;42.35;24.75;;;;;;;0.09;70.14;95301.41;4131920;28;20064;-83
2021/01/21 05:46:05;;;;;;;42.33;27.60;;;;;;;0.12;69.93;95302.06;4145021;28;20053;-81
2021/01/21 05:48:07;;;;;;;38.92;23.83;;;;;;;0.13;69.68;95305.47;4132321;28;20054;-82
2021/01/21 05:50:08;;;;;;;40.65;24.38;;;;;;;0.13;69.98;95300.31;4131261;28;20050;-81
2021/01/21 05:52:09;;;;;;;40.70;24.45;;;;;;;0.17;69.64;95304.41;4144521;28;20052;-84
2021/01/21 05:54:11;;;;;;;41.55;24.65;;;;;;;0.18;69.47;95295.78;4136865;28;20131;-80
2021/01/21 05:56:12;;;;;;;47.58;25.35;;;;;;;0.17;69.79;95292.38;4137657;28;20058;-83
2021/01/21 05:58:14;;;;;;;47.88;24.88;;;;;;;0.19;69.71;95297.41;4133464;28;20061;-81
2021/01/21 06:00:19;;;;;;;41.75;26.80;;;;;;;0.19;69.93;95293.13;4132524;28;20058;-81
2021/01/21 06:02:21;;;;;;;47.70;27.02;;;;;;;0.23;69.63;95293.78;4143565;28;20054;-82
2021/01/21 06:04:27;;;;;;;46.50;27.52;;;;;;;0.25;69.70;95297.09;4130959;28;20499;-71
2021/01/21 06:06:28;;;;;;;39.65;24.13;;;;;;;0.22;69.33;95292.13;4117683;28;20100;-70
2021/01/21 06:08:29;;;;;;;46.22;25.90;;;;;;;0.20;69.49;95292.19;4127186;28;20056;-71
2021/01/21 06:10:43;;;;;;;46.67;26.23;;;;;;;0.23;69.15;95303.25;4123859;28;20062;-72
2021/01/21 06:12:46;;;;;;;43.60;25.95;;;;;;;0.25;69.80;95307.41;4127022;28;20058;-71
2021/01/21 06:14:47;;;;;;;62.40;36.25;;;;;;;0.26;69.87;95306.50;4128107;28;20050;-83
2021/01/21 06:16:50;;;;;;;60.22;35.85;;;;;;;0.26;70.48;95303.94;4132130;28;20569;-83
2021/01/21 06:18:52;;;;;;;61.47;35.42;;;;;;;0.12;70.38;95319.28;4132711;28;20134;-81
2021/01/21 06:20:53;;;;;;;55.05;31.63;;;;;;;-0.07;70.44;95320.22;4122144;28;20535;-82
2021/01/21 06:22:55;;;;;;;52.60;30.52;;;;;;;-0.14;71.12;95324.03;4115754;28;20476;-81
2021/01/21 06:25:01;;;;;;;51.05;31.42;;;;;;;-0.32;72.03;95312.09;4116874;28;20199;-82
2021/01/21 06:27:04;;;;;;;48.28;28.35;;;;;;;-0.29;72.04;95307.63;4133035;28;20495;-82
2021/01/21 06:29:05;;;;;;;52.97;31.17;;;;;;;-0.18;71.45;95322.53;4133693;28;20133;-83
2021/01/21 06:31:07;;;;;;;52.88;31.77;;;;;;;-0.06;71.10;95311.59;4131252;28;20054;-81
2021/01/21 06:33:11;;;;;;;60.47;33.95;;;;;;;0.04;70.69;95317.09;4130779;28;20091;-83
2021/01/21 06:35:16;;;;;;;55.10;33.20;;;;;;;-0.12;71.13;95317.06;4115508;28;20058;-81
2021/01/21 06:37:21;;;;;;;66.70;33.92;;;;;;;-0.09;71.18;95319.47;4115182;28;20042;-81
2021/01/21 06:39:53;;;;;;;61.80;34.75;;;;;;;-0.22;71.40;95315.88;4127108;28;20058;-83
2021/01/21 06:42:05;;;;;;;55.92;33.53;;;;;;;-0.11;71.24;95317.91;4098831;28;20062;-85
2021/01/21 06:44:06;;;;;;;70.23;40.50;;;;;;;0.01;71.18;95316.44;4104708;28;20055;-83
2021/01/21 06:46:08;;;;;;;63.25;36.88;;;;;;;0.11;71.04;95320.22;4136048;28;20050;-84
2021/01/21 06:48:10;;;;;;;61.13;34.38;;;;;;;0.22;70.87;95319.63;4136677;28;20141;-83
2021/01/21 06:50:12;;;;;;;56.42;34.53;;;;;;;0.28;70.29;95309.84;4139508;28;20057;-84
2021/01/21 06:52:13;;;;;;;60.22;34.45;;;;;;;0.38;69.63;95303.25;4139026;28;20133;-85
2021/01/21 06:54:16;;;;;;;54.95;33.35;;;;;;;0.47;69.82;95303.69;4136380;28;20437;-82
2021/01/21 06:56:17;;;;;;;57.58;34.13;;;;;;;0.54;69.24;95300.69;4135045;28;20055;-81
2021/01/21 06:58:50;;;;;;;52.38;33.00;;;;;;;0.61;69.14;95303.78;4136355;28;20579;-83
2021/01/21 07:00:51;;;;;;;58.78;35.72;;;;;;;0.57;69.29;95299.69;4136032;28;20046;-84
2021/01/21 07:02:52;;;;;;;73.35;42.35;;;;;;;0.44;70.05;95303.84;4137140;28;20112;-85
2021/01/21 07:05:10;;;;;;;67.82;37.35;;;;;;;0.44;70.36;95302.09;4140269;28;20078;-85
2021/01/21 07:07:12;;;;;;;69.88;39.58;;;;;;;0.46;70.18;95304.59;4139329;28;20084;-83
2021/01/21 07:09:14;;;;;;;67.43;40.83;;;;;;;0.27;71.15;95308.16;4141847;28;20142;-85
2021/01/21 07:11:16;;;;;;;72.35;42.58;;;;;;;0.25;71.06;95304.00;4141885;28;20061;-82
2021/01/21 07:13:18;;;;;;;80.38;43.83;;;;;;;0.34;70.76;95309.47;4145524;28;20060;-84
2021/01/21 07:15:29;;;;;;;74.88;44.83;;;;;;;0.33;70.26;95314.75;4138327;28;20053;-81
2021/01/21 07:17:30;;;;;;;81.03;44.90;;;;;;;-0.04;72.06;95316.69;4141088;28;20054;-83
2021/01/21 07:19:39;;;;;;;80.10;46.33;;;;;;;0.11;71.83;95321.03;4141508;28;20101;-81
2021/01/21 07:21:51;;;;;;;73.85;45.50;;;;;;;0.28;71.29;95316.72;4128579;28;20531;-82
2021/01/21 07:23:57;;;;;;;79.97;46.42;;;;;;;0.42;70.77;95323.72;4141201;28;20081;-82
2021/01/21 07:26:36;;;;;;;86.35;47.20;;;;;;;0.51;70.39;95323.22;4137409;28;20089;-84
2021/01/21 07:28:54;;;;;;;93.65;50.20;;;;;;;0.67;69.78;95321.50;4127097;28;20038;-82
2021/01/21 07:31:01;;;;;;;99.78;53.22;;;;;;;0.68;69.26;95315.41;4143687;28;20042;-81
2021/01/21 07:33:26;;;;;;;96.20;53.92;;;;;;;0.84;69.46;95324.88;4124504;28;20419;-84
2021/01/21 07:35:39;;;;;;;100.45;52.85;;;;;;;0.90;68.90;95327.13;4127183;28;20057;-84
2021/01/21 07:37:45;;;;;;;101.63;57.72;;;;;;;0.90;68.24;95325.34;4134401;28;20487;-74
2021/01/21 07:40:03;;;;;;;113.60;58.33;;;;;;;0.98;68.24;95320.59;4127020;28;20058;-71
2021/01/21 07:42:04;;;;;;;99.85;56.03;;;;;;;1.04;68.19;95322.03;4126986;28;20128;-72
2021/01/21 07:44:06;;;;;;;101.30;58.00;;;;;;;1.14;67.74;95325.75;4127790;28;20070;-72
2021/01/21 07:46:25;;;;;;;100.20;55.65;;;;;;;1.21;67.92;95327.06;4121144;28;20050;-74
2021/01/21 07:48:30;;;;;;;97.82;53.90;;;;;;;1.30;67.48;95323.13;4130767;28;20054;-72
2021/01/21 07:50:34;;;;;;;88.00;50.25;;;;;;;1.34;67.33;95323.78;4128589;28;20361;-73
2021/01/21 07:52:40;;;;;;;92.07;51.78;;;;;;;1.37;67.05;95323.59;4128480;28;20435;-71
2021/01/21 07:54:54;;;;;;;88.63;47.90;;;;;;;1.41;67.31;95322.50;4126500;28;20484;-73
2021/01/21 07:56:57;;;;;;;77.70;46.38;;;;;;;1.35;66.85;95323.69;4123581;28;20420;-70
2021/01/21 07:59:01;;;;;;;69.63;42.80;;;;;;;1.42;67.22;95312.09;4119520;28;20092;-72
2021/01/21 08:01:10;;;;;;;73.30;42.63;;;;;;;1.52;67.12;95316.72;4126284;28;20058;-71
2021/01/21 08:03:11;;;;;;;68.75;40.30;;;;;;;1.60;67.09;95317.13;4119436;28;20046;-69
2021/01/21 08:05:14;;;;;;;71.80;42.97;;;;;;;1.70;66.86;95322.56;4122166;28;20054;-69
2021/01/21 08:07:16;;;;;;;70.35;39.50;;;;;;;1.70;65.94;95315.66;4125710;28;20054;-72
2021/01/21 08:09:21;;;;;;;65.18;39.08;;;;;;;1.75;66.28;95317.97;4130271;28;20061;-71
2021/01/21 08:11:23;;;;;;;57.95;35.50;;;;;;;1.80;65.53;95303.84;4115908;28;20066;-71
2021/01/21 08:13:24;;;;;;;54.90;34.90;;;;;;;1.85;65.68;95306.19;4128951;28;20050;-69
2021/01/21 08:15:27;;;;;;;55.80;34.88;;;;;;;1.79;65.44;95311.72;4128640;28;20066;-71
2021/01/21 08:17:28;;;;;;;63.28;33.40;;;;;;;1.63;66.06;95311.75;4130288;28;20393;-70
2021/01/21 08:19:30;;;;;;;62.53;36.28;;;;;;;1.74;66.46;95319.75;4130810;28;20089;-71
2021/01/21 08:21:31;;;;;;;70.03;42.92;;;;;;;1.86;66.22;95318.16;4129126;28;20046;-71
2021/01/21 08:23:32;;;;;;;95.47;52.95;;;;;;;2.02;66.73;95321.50;4131068;28;20086;-72
2021/01/21 08:26:00;;;;;;;59.28;32.45;;;;;;;2.00;65.32;95314.75;4129151;28;20137;-71
2021/01/21 08:28:01;;;;;;;53.30;33.78;;;;;;;1.97;65.33;95320.94;4125887;28;20396;-71
2021/01/21 08:30:17;;;;;;;53.63;31.98;;;;;;;2.11;65.11;95316.69;4128124;28;20062;-72
2021/01/21 08:32:18;;;;;;;53.03;32.15;;;;;;;2.21;64.68;95325.56;4129450;28;20042;-74
2021/01/21 08:34:24;;;;;;;46.65;30.38;;;;;;;2.28;64.60;95319.13;4130931;28;20050;-71
2021/01/21 08:36:25;;;;;;;48.33;31.40;;;;;;;2.35;63.65;95315.22;4128851;28;20060;-72
2021/01/21 08:38:35;;;;;;;46.40;27.65;;;;;;;2.41;63.28;95311.41;4128136;28;20050;-73
2021/01/21 08:40:36;;;;;;;45.63;28.25;;;;;;;2.46;63.23;95312.78;4128148;28;20046;-71
2021/01/21 08:42:38;;;;;;;42.38;26.98;;;;;;;2.51;63.14;95325.44;4128696;28;20190;-73
2021/01/21 08:44:39;;;;;;;37.40;20.75;;;;;;;2.45;61.72;95313.72;4129549;28;20054;-72
2021/01/21 08:46:40;;;;;;;39.75;21.38;;;;;;;2.37;62.35;95318.53;4127111;28;20101;-71
2021/01/21 08:48:42;;;;;;;31.75;20.50;;;;;;;2.44;61.94;95322.41;4128994;28;20058;-72
2021/01/21 08:50:44;;;;;;;36.22;18.10;;;;;;;2.41;61.31;95320.00;4128784;28;20412;-70
2021/01/21 08:53:19;;;;;;;31.30;15.90;;;;;;;2.45;60.84;95320.63;4130259;28;20506;-71
2021/01/21 08:55:20;;;;;;;32.03;18.90;;;;;;;2.47;60.84;95329.13;4120716;28;20054;-70
2021/01/21 08:57:23;;;;;;;42.35;19.40;;;;;;;2.43;61.28;95323.34;4129531;28;20046;-70
2021/01/21 08:59:29;;;;;;;36.28;17.77;;;;;;;2.31;61.41;95318.09;4129202;28;20046;-71
2021/01/21 09:01:43;;;;;;;34.28;19.10;;;;;;;2.33;61.82;95311.91;4127870;28;20070;-73
2021/01/21 09:03:49;;;;;;;29.58;18.38;;;;;;;2.37;61.30;95313.38;4128894;28;20125;-71
2021/01/21 09:05:56;;;;;;;33.08;18.33;;;;;;;2.20;61.78;95314.41;4122547;28;20058;-71
2021/01/21 09:08:06;;;;;;;31.33;17.92;;;;;;;2.30;61.76;95312.06;4125503;28;20466;-72
2021/01/21 09:10:12;;;;;;;34.22;19.00;;;;;;;2.50;61.77;95326.38;4129958;28;20097;-71
2021/01/21 09:12:14;;;;;;;31.83;18.73;;;;;;;2.68;61.33;95316.63;4130113;28;20068;-72
2021/01/21 09:14:16;;;;;;;35.97;19.60;;;;;;;2.57;60.56;95308.72;4130337;28;20439;-69
2021/01/21 09:16:17;;;;;;;39.10;20.65;;;;;;;2.61;61.34;95318.78;4130189;28;20523;-72
2021/01/21 09:18:20;;;;;;;45.10;20.30;;;;;;;2.73;60.53;95319.78;4124933;28;20057;-71
2021/01/21 09:20:24;;;;;;;28.95;17.42;;;;;;;2.62;60.05;95324.78;4130405;28;20133;-72
2021/01/21 09:22:39;;;;;;;25.92;15.52;;;;;;;2.61;60.61;95310.19;4129474;28;20519;-73
2021/01/21 09:25:01;;;;;;;27.13;16.73;;;;;;;2.75;60.55;95311.91;4127664;28;20105;-71
2021/01/21 09:27:15;;;;;;;30.20;17.35;;;;;;;2.85;59.47;95308.63;4117331;28;20137;-72
2021/01/21 09:29:16;;;;;;;44.30;25.25;;;;;;;2.97;60.49;95301.00;4127989;28;20050;-71
2021/01/21 09:31:21;;;;;;;32.55;18.88;;;;;;;3.01;59.18;95290.38;4121297;28;20060;-71
2021/01/21 09:33:26;;;;;;;33.55;16.05;;;;;;;2.89;59.53;95291.16;4134409;28;20566;-73
2021/01/21 09:35:28;;;;;;;31.17;15.98;;;;;;;2.91;59.56;95293.66;4128196;28;20053;-72
2021/01/21 09:37:32;;;;;;;29.85;17.02;;;;;;;2.46;60.37;95288.69;4134278;28;20496;-71
2021/01/21 09:39:34;;;;;;;26.60;15.30;;;;;;;2.58;60.47;95285.34;4133779;28;20460;-72